Latest Weather Observations for Kowanyama

IDQ60801

Issued at 6:05 pm EST Thursday 27 November 2014 (issued every 30 minutes, with the page automatically refreshed every 10 minutes)

About weather observations | Map of weather stations | Latest weather observations for QLD | Other Formats
Station Details ID: 029038 Name: KOWANYAMA AIRPORT Lat: -15.48 Lon: 141.75 Height: 9.6 m
Data from the previous 72 hours. | See also: Recent months at Kowanyama
Date/Time
EST
Temp
°C
App
Temp
°C
Dew
Point
Rel
Hum
%
Delta-T
°C
Wind Press
QNH
hPa
Press
MSL
hPa
Rain
since 9 am
mm
Dir
 
Spd
km/h
Gust
km/h
Spd
kts
Gust
kts
27/06:00pm 33.1 34.0 20.9 48 8.2 W 17 22 9 12 1006.7 1006.6 0.0
27/05:30pm 33.7 33.8 21.2 48 8.4 WSW 22 32 12 17 1006.4 1006.3 0.0
27/05:00pm 34.3 34.5 20.6 44 9.2 WSW 20 28 11 15 1006.0 1005.9 0.0
27/04:30pm 35.6 36.0 20.7 41 10.0 WSW 19 24 10 13 1005.8 1005.7 0.0
27/04:00pm 35.9 36.5 21.3 42 9.9 WSW 20 28 11 15 1005.6 1005.5 0.0
27/03:30pm 36.3 37.6 20.1 38 10.9 WSW 13 20 7 11 1006.0 1005.9 0.0
27/03:00pm 36.6 37.7 17.2 31 12.5 E 7 17 4 9 1006.2 1006.1 0.0
27/02:30pm 36.2 37.6 17.4 33 12.2 S 6 11 3 6 1006.7 1006.6 0.0
27/02:00pm 36.3 37.4 17.9 33 12.0 E 9 17 5 9 1007.1 1007.0 0.0
27/01:30pm 36.8 38.1 18.4 34 12.1 NNE 9 20 5 11 1007.5 1007.4 0.0
27/01:00pm 36.1 37.9 18.7 36 11.5 NNE 7 17 4 9 1008.1 1008.0 0.0
27/12:30pm 35.0 35.4 18.1 36 11.0 ESE 13 19 7 10 1008.7 1008.6 0.0
27/12:00pm 35.2 36.0 19.1 38 10.6 ENE 13 22 7 12 1009.2 1009.1 0.0
27/11:30am 33.7 33.7 19.0 42 9.6 NNE 17 26 9 14 1009.6 1009.5 0.0
27/11:00am 32.7 33.0 19.6 46 8.6 NE 17 26 9 14 1010.0 1009.9 0.0
27/10:30am 31.8 32.0 19.4 47 8.1 ENE 17 24 9 13 1010.5 1010.4 0.0
27/10:00am 31.6 31.5 19.6 49 7.9 ENE 19 28 10 15 1010.8 1010.7 0.0
27/09:30am 31.4 31.9 20.0 50 7.5 ENE 17 30 9 16 1011.0 1010.9 0.0
27/09:00am 30.2 30.4 20.2 55 6.6 E 19 26 10 14 1010.9 1010.8 0.0
27/08:30am 29.2 30.4 20.6 59 5.7 ENE 15 20 8 11 1010.8 1010.7 0.0
27/08:00am 28.7 29.9 20.7 62 5.3 ENE 15 24 8 13 1010.9 1010.8 0.0
27/07:30am 27.5 29.6 20.1 64 4.8 ENE 9 15 5 8 1010.9 1010.8 0.0
27/07:00am 27.1 29.1 19.9 64 4.7 E 9 13 5 7 1010.5 1010.4 0.0
27/06:30am 26.7 28.6 19.8 66 4.5 ENE 9 13 5 7 1010.3 1010.2 0.0
27/06:00am 26.6 28.6 20.0 67 4.3 NE 9 13 5 7 1010.1 1010.0 0.0
27/05:30am 26.7 29.1 20.1 67 4.3 NE 7 13 4 7 1009.9 1009.8 0.0
27/05:00am 27.1 29.3 20.4 66 4.4 ENE 9 15 5 8 1009.6 1009.5 0.0
27/04:30am 27.5 29.9 20.8 67 4.4 NE 9 15 5 8 1009.3 1009.2 0.0
27/04:00am 27.5 30.6 21.1 68 4.3 NNE 6 9 3 5 1009.0 1008.9 0.0
27/03:30am 27.7 30.2 21.0 67 4.4 NE 9 15 5 8 1008.9 1008.8 0.0
27/03:00am 27.6 30.0 20.9 67 4.4 NE 9 13 5 7 1008.7 1008.6 0.0
27/02:30am 26.8 29.2 21.5 72 3.5 ESE 11 15 6 8 1008.7 1008.6 0.0
27/02:00am 27.3 31.7 21.3 69 4.0 CALM 0 6 0 3 1008.8 1008.7 0.0
27/01:30am 27.4 30.5 21.4 70 4.0 ENE 7 13 4 7 1008.9 1008.8 0.0
27/01:00am 27.2 30.4 21.7 72 3.7 E 7 11 4 6 1009.4 1009.3 0.0
27/12:30am 27.1 31.6 21.6 72 3.7 CALM 0 0 0 0 1009.6 1009.5 0.0
27/12:00am 27.0 30.1 21.5 72 3.7 ENE 7 11 4 6 1009.6 1009.5 0.0
 
Date/Time
EST
Temp
°C
App
Temp
°C
Dew
Point
Rel
Hum
%
Delta-T
°C
Wind Press
QNH
hPa
Press
MSL
hPa
Rain
since 9 am
mm
Dir
 
Spd
km/h
Gust
km/h
Spd
kts
Gust
kts
26/11:30pm 26.8 29.0 21.8 74 3.3 NE 13 20 7 11 1009.8 1009.7 0.0
26/11:00pm 27.5 29.1 21.5 70 4.0 NE 15 24 8 13 1009.7 1009.6 0.0
26/10:30pm 29.0 31.5 19.9 58 6.0 NE 6 13 3 7 1009.5 1009.4 0.0
26/10:00pm 29.4 32.5 20.3 58 6.0 NE 4 7 2 4 1009.2 1009.1 0.0
26/09:30pm 29.4 31.9 21.1 61 5.5 NE 9 13 5 7 1008.7 1008.6 0.0
26/09:00pm 29.0 31.8 21.5 64 5.0 SW 9 17 5 9 1007.5 1007.4 0.0
26/08:30pm 29.2 31.3 20.9 61 5.5 SW 11 13 6 7 1007.2 1007.1 0.0
26/08:00pm 29.6 31.1 20.5 58 6.0 SW 13 20 7 11 1006.8 1006.7 0.0
26/07:30pm 30.3 30.6 19.6 52 7.0 SW 17 22 9 12 1006.5 1006.4 0.0
26/07:00pm 31.1 32.2 20.4 53 7.1 WSW 15 17 8 9 1006.2 1006.1 0.0
26/06:30pm 32.0 33.2 20.6 51 7.6 W 15 20 8 11 1005.9 1005.8 0.0
26/06:00pm 33.1 34.1 20.3 47 8.5 W 15 20 8 11 1005.6 1005.5 0.0
26/05:30pm 32.6 33.0 19.8 46 8.5 W 17 24 9 13 1005.4 1005.3 0.0
26/05:00pm 33.0 33.0 20.2 47 8.5 W 20 28 11 15 1005.2 1005.1 0.0
26/04:30pm 36.2 36.3 19.2 37 11.3 WSW 17 22 9 12 1004.9 1004.8 0.0
26/04:00pm 36.8 37.0 14.7 26 13.8 NE 7 15 4 8 1005.0 1004.9 0.0
26/03:30pm 36.9 36.2 15.4 28 13.5 NE 13 20 7 11 1005.2 1005.1 0.0
26/03:00pm 37.6 37.4 14.8 25 14.3 E 9 17 5 9 1005.5 1005.4 0.0
26/02:30pm 37.5 36.8 15.3 26 14.0 ENE 13 17 7 9 1005.9 1005.8 0.0
26/02:00pm 35.7 35.4 16.4 31 12.3 N 13 24 7 13 1006.3 1006.2 0.0
26/01:30pm 35.8 35.7 17.0 32 12.1 NE 13 24 7 13 1006.8 1006.7 0.0
26/01:00pm 35.2 35.1 17.0 34 11.7 ENE 13 20 7 11 1007.2 1007.1 0.0
26/12:30pm 34.2 34.8 17.8 37 10.6 N 11 19 6 10 1007.9 1007.8 0.0
26/12:00pm 32.8 34.5 18.6 43 9.3 ENE 7 19 4 10 1008.5 1008.4 0.0
26/11:30am 32.8 32.6 18.6 43 9.2 E 17 22 9 12 1009.0 1008.9 0.0
26/11:00am 31.4 31.7 18.7 46 8.2 ENE 15 20 8 11 1009.5 1009.4 0.0
26/10:30am 32.1 33.1 19.4 47 8.3 E 13 22 7 12 1009.9 1009.8 0.0
26/10:00am 30.7 31.4 19.7 52 7.2 ENE 15 22 8 12 1010.1 1010.0 0.0
26/09:30am 29.8 30.6 19.8 55 6.6 ENE 15 22 8 12 1010.2 1010.1 0.0
26/09:00am 28.8 29.4 19.4 56 6.1 ENE 15 24 8 13 1010.2 1010.1 0.0
26/08:30am 28.7 29.7 20.2 60 5.6 ENE 15 24 8 13 1010.4 1010.3 0.0
26/08:00am 27.6 29.6 19.9 63 5.0 E 9 13 5 7 1010.5 1010.4 0.0
26/07:30am 26.8 29.0 19.7 65 4.6 E 7 13 4 7 1010.2 1010.1 0.0
26/07:00am 26.3 28.6 19.9 68 4.2 E 7 11 4 6 1010.1 1010.0 0.0
26/06:30am 25.6 27.8 19.7 70 3.8 E 7 11 4 6 1009.9 1009.8 0.0
26/06:00am 25.6 29.2 19.7 70 3.8 CALM 0 0 0 0 1009.6 1009.5 0.0
26/05:30am 26.1 29.7 19.7 68 4.1 CALM 0 6 0 3 1009.1 1009.0 0.0
26/05:00am 26.5 28.7 19.6 66 4.5 NNE 7 11 4 6 1008.7 1008.6 0.0
26/04:30am 26.9 29.2 19.8 65 4.6 NNE 7 11 4 6 1008.6 1008.5 0.0
26/04:00am 27.2 29.9 19.5 62 5.0 NNE 4 9 2 5 1008.5 1008.4 0.0
26/03:30am 27.5 29.7 19.6 62 5.1 NNE 7 11 4 6 1008.5 1008.4 0.0
26/03:00am 27.9 30.0 19.4 60 5.5 NNE 7 13 4 7 1008.3 1008.2 0.0
26/02:30am 28.1 29.8 19.3 58 5.7 NE 9 13 5 7 1008.5 1008.4 0.0
26/02:00am 28.4 30.1 19.3 57 5.9 NE 9 13 5 7 1008.6 1008.5 0.0
26/01:30am 28.1 30.4 19.9 61 5.4 NE 7 13 4 7 1008.6 1008.5 0.0
26/01:00am 27.8 30.3 19.8 61 5.2 NE 6 7 3 4 1008.9 1008.8 0.0
26/12:30am 28.4 31.8 20.1 60 5.4 NNE 2 6 1 3 1009.2 1009.1 0.0
26/12:00am 28.3 31.3 20.1 61 5.4 NE 4 6 2 3 1009.4 1009.3 0.0
 
Date/Time
EST
Temp
°C
App
Temp
°C
Dew
Point
Rel
Hum
%
Delta-T
°C
Wind Press
QNH
hPa
Press
MSL
hPa
Rain
since 9 am
mm
Dir
 
Spd
km/h
Gust
km/h
Spd
kts
Gust
kts
25/11:30pm 28.3 30.9 20.1 61 5.4 NE 6 7 3 4 1009.5 1009.4 0.0
25/11:00pm 27.8 31.0 20.4 64 4.9 NE 4 7 2 4 1009.4 1009.3 0.0
25/10:30pm 28.1 31.9 20.1 62 5.2 CALM 0 0 0 0 1009.1 1009.0 0.0
25/10:00pm 29.1 33.0 20.3 59 5.8 CALM 0 4 0 2 1008.9 1008.8 0.0
25/09:30pm 29.0 30.0 20.2 59 5.8 NE 15 20 8 11 1008.6 1008.5 0.0
25/09:00pm 29.0 32.1 20.2 59 5.8 NW 4 7 2 4 1007.3 1007.2 0.0
25/08:30pm 29.2 30.7 19.8 57 6.2 WSW 11 15 6 8 1006.8 1006.7 0.0
25/08:00pm 29.6 30.7 19.6 55 6.5 W 13 15 7 8 1006.5 1006.4 0.0
25/07:30pm 30.0 30.6 19.4 53 6.9 W 15 20 8 11 1006.5 1006.4 0.0
25/07:00pm 30.8 31.4 19.5 51 7.4 W 15 20 8 11 1006.1 1006.0 0.0
25/06:30pm 31.5 31.8 19.5 49 7.9 WSW 17 28 9 15 1005.8 1005.7 0.0
25/06:00pm 32.3 32.0 19.2 46 8.6 W 19 24 10 13 1005.6 1005.5 0.0
25/05:30pm 33.3 32.0 19.0 42 9.4 WNW 24 30 13 16 1005.4 1005.3 0.0
25/05:00pm 34.4 33.4 19.6 41 9.8 W 24 33 13 18 1005.0 1004.9 0.0
25/04:30pm 34.3 33.7 18.8 40 10.2 W 20 28 11 15 1004.9 1004.8 0.0
25/04:00pm 35.3 34.3 18.8 37 10.9 W 22 30 12 16 1005.0 1004.9 0.0
25/03:30pm 37.6 37.4 14.8 25 14.3 SE 9 20 5 11 1005.2 1005.1 0.0
25/03:00pm 38.0 36.9 15.2 26 14.4 E 15 26 8 14 1005.5 1005.4 0.0
25/02:30pm 37.3 36.2 15.2 27 13.9 SE 15 28 8 15 1006.1 1006.0 0.0
25/02:00pm 36.6 36.4 15.7 29 13.2 NNE 11 19 6 10 1006.5 1006.4 0.0
25/01:30pm 36.4 35.2 15.0 28 13.4 E 15 28 8 15 1007.0 1006.9 0.0
25/01:00pm 35.9 33.8 15.1 29 13.0 SSE 20 30 11 16 1007.5 1007.4 0.0
25/12:30pm 35.0 34.6 15.3 30 12.3 NE 11 19 6 10 1008.0 1007.9 0.0
25/12:00pm 34.6 33.9 16.4 33 11.6 ENE 15 20 8 11 1008.8 1008.7 0.0
25/11:30am 34.5 34.5 17.3 36 11.0 E 13 24 7 13 1009.4 1009.3 0.0
25/11:00am 33.4 33.0 17.1 37 10.4 E 15 30 8 16 1010.0 1009.9 0.0
25/10:30am 32.2 31.5 17.3 41 9.5 ENE 17 28 9 15 1010.4 1010.3 0.0
25/10:00am 31.3 31.9 18.6 46 8.2 ENE 13 20 7 11 1010.7 1010.6 0.0
25/09:30am 30.7 30.9 19.4 51 7.4 ENE 17 28 9 15 1010.9 1010.8 0.0
25/09:00am 28.9 28.8 19.5 57 6.1 NNE 19 26 10 14 1011.1 1011.0 0.0
25/08:30am 29.0 29.7 19.6 57 6.1 E 15 22 8 12 1011.4 1011.3 0.0
25/08:00am 28.3 29.1 19.8 60 5.6 ENE 15 24 8 13 1011.6 1011.5 0.0
25/07:30am 27.3 29.4 20.1 64 4.7 ENE 9 15 5 8 1011.5 1011.4 0.0
25/07:00am 26.7 29.2 20.3 68 4.2 E 7 13 4 7 1011.3 1011.2 0.0
25/06:30am 26.1 28.7 20.4 71 3.7 ENE 7 11 4 6 1010.6 1010.5 0.0
25/06:00am 25.8 28.1 19.9 70 3.8 NE 7 9 4 5 1009.9 1009.8 0.0
25/05:30am 26.3 29.5 19.7 67 4.3 NE 2 6 1 3 1009.9 1009.8 0.0
25/05:00am 26.6 28.8 19.7 66 4.5 NE 7 9 4 5 1009.8 1009.7 0.0
25/04:30am 26.7 29.5 19.6 65 4.6 ENE 4 7 2 4 1009.7 1009.6 0.0
25/04:00am 27.1 29.1 19.2 62 5.1 NE 7 9 4 5 1009.2 1009.1 0.0
25/03:30am 27.7 29.3 19.2 60 5.5 NNE 9 13 5 7 1009.2 1009.1 0.0
25/03:00am 27.8 29.4 19.1 59 5.6 NNE 9 15 5 8 1009.4 1009.3 0.0
25/02:30am 28.1 29.4 19.3 58 5.7 NNE 11 17 6 9 1009.5 1009.4 0.0
25/02:00am 27.9 29.5 19.9 61 5.2 NNE 11 19 6 10 1009.7 1009.6 0.0
25/01:30am 27.9 30.0 19.4 60 5.5 NNE 7 15 4 8 1009.8 1009.7 0.0
25/01:00am 27.9 30.8 19.1 58 5.7 N 2 6 1 3 1010.3 1010.2 0.0
25/12:30am 27.9 30.0 19.4 60 5.5 N 7 11 4 6 1010.5 1010.4 0.0
25/12:00am 27.6 29.6 19.9 63 5.0 N 9 15 5 8 1010.7 1010.6 0.0
 
Date/Time
EST
Temp
°C
App
Temp
°C
Dew
Point
Rel
Hum
%
Delta-T
°C
Wind Press
QNH
hPa
Press
MSL
hPa
Rain
since 9 am
mm
Dir
 
Spd
km/h
Gust
km/h
Spd
kts
Gust
kts
24/11:30pm 27.6 28.7 19.7 62 5.1 NNE 13 19 7 10 1010.7 1010.6 0.0
24/11:00pm 27.6 30.9 21.4 69 4.1 ESE 6 13 3 7 1010.9 1010.8 0.0
24/10:30pm 28.3 32.5 22.5 71 3.9 SE 4 7 2 4 1010.8 1010.7 0.0
24/10:00pm 29.4 32.0 22.6 67 4.6 ESE 13 20 7 11 1010.8 1010.7 0.0
24/09:30pm 29.0 32.9 22.5 68 4.4 NE 6 9 3 5 1009.8 1009.7 0.0
24/09:00pm 28.9 32.1 22.4 68 4.4 N 9 13 5 7 1009.4 1009.3 0.0
24/08:30pm 28.9 32.1 22.4 68 4.4 W 9 15 5 8 1008.3 1008.2 0.0
24/08:00pm 29.1 31.8 22.1 66 4.7 W 11 17 6 9 1007.6 1007.5 0.0
24/07:30pm 29.3 31.5 21.8 64 5.0 W 13 19 7 10 1007.4 1007.3 0.0
24/07:00pm 30.1 32.2 21.7 60 5.7 W 13 17 7 9 1007.0 1006.9 0.0
24/06:30pm 31.1 31.7 21.0 55 6.8 WNW 19 22 10 12 1006.6 1006.5 0.0

Other Formats:

Comma delimited format used in spreadsheet applications
http://www.bom.gov.au/fwo/IDQ60801/IDQ60801.94268.axf

JavaScript Object Notation format (JSON) in row-major order
http://www.bom.gov.au/fwo/IDQ60801/IDQ60801.94268.json